createdAt,value
2018-10-01T00:02:27.207Z,13.1
2018-10-01T00:07:27.102Z,13.1
2018-10-01T00:12:27.563Z,13.2
2018-10-01T00:17:28.149Z,13.2
2018-10-01T00:22:28.148Z,13.2
2018-10-01T00:27:27.070Z,13.2
2018-10-01T00:32:27.577Z,13.2
2018-10-01T00:37:27.273Z,13.2
2018-10-01T00:42:27.676Z,13.3
2018-10-01T00:47:27.495Z,13.2
2018-10-01T00:52:27.342Z,13.1
2018-10-01T00:57:28.604Z,13.0
2018-10-01T01:02:26.923Z,13.1
2018-10-01T01:07:27.825Z,13.0
2018-10-01T01:12:27.866Z,13.0
2018-10-01T01:17:28.298Z,12.9
2018-10-01T01:22:27.678Z,13.0
2018-10-01T01:27:27.372Z,13.0
2018-10-01T01:32:27.742Z,13.1
2018-10-01T01:37:27.448Z,13.0
2018-10-01T01:42:27.197Z,13.1
2018-10-01T01:47:28.844Z,13.2
2018-10-01T01:52:27.227Z,13.2
2018-10-01T01:57:27.911Z,13.2
2018-10-01T02:02:27.797Z,13.3
2018-10-01T02:07:27.860Z,13.2
2018-10-01T02:12:28.002Z,13.4
2018-10-01T02:17:27.721Z,13.4
2018-10-01T02:22:26.901Z,13.4
2018-10-01T02:27:27.907Z,13.6
2018-10-01T02:32:26.748Z,13.6
2018-10-01T02:37:28.131Z,13.7
2018-10-01T02:42:27.619Z,13.6
2018-10-01T02:47:28.090Z,13.7
2018-10-01T02:52:27.799Z,13.7
2018-10-01T02:57:27.910Z,13.6
2018-10-01T03:02:27.149Z,13.5
2018-10-01T03:07:28.005Z,13.5
2018-10-01T03:12:29.229Z,13.4
2018-10-01T03:17:27.267Z,13.3
2018-10-01T03:22:27.861Z,13.3
2018-10-01T03:27:27.965Z,13.0
2018-10-01T03:32:27.449Z,12.8
2018-10-01T03:37:28.189Z,12.6
2018-10-01T03:42:27.438Z,12.5
2018-10-01T03:47:27.374Z,12.4
2018-10-01T03:52:27.227Z,12.3
2018-10-01T03:57:27.430Z,12.4
2018-10-01T04:02:27.790Z,12.4
2018-10-01T04:07:27.186Z,12.5
2018-10-01T04:12:27.230Z,12.5
2018-10-01T04:17:27.629Z,12.5
2018-10-01T04:22:26.945Z,12.4
2018-10-01T04:27:27.483Z,12.4
2018-10-01T04:32:27.817Z,12.4
2018-10-01T04:37:27.222Z,12.2
2018-10-01T04:42:28.116Z,12.2
2018-10-01T04:47:28.084Z,12.2
2018-10-01T04:52:48.749Z,12.1
2018-10-01T04:58:32.789Z,12.0
2018-10-01T05:02:28.214Z,12.0
2018-10-01T05:07:28.244Z,11.8
2018-10-01T05:12:28.437Z,11.8
2018-10-01T05:17:29.288Z,11.7
2018-10-01T05:22:28.836Z,11.7
2018-10-01T05:27:29.049Z,11.7
2018-10-01T05:32:29.353Z,11.7
2018-10-01T05:37:27.908Z,11.6
2018-10-01T05:42:27.989Z,11.6
2018-10-01T05:47:29.029Z,11.5
2018-10-01T05:52:28.105Z,11.4
2018-10-01T05:57:27.973Z,11.5
2018-10-01T06:02:28.452Z,11.5
2018-10-01T06:07:27.970Z,11.5
2018-10-01T06:12:28.144Z,11.5
2018-10-01T06:17:28.789Z,11.7
2018-10-01T06:22:28.728Z,11.7
2018-10-01T06:27:28.469Z,11.9
2018-10-01T06:32:28.675Z,12.0
2018-10-01T06:37:27.887Z,12.0
2018-10-01T06:42:28.336Z,12.0
2018-10-01T06:47:28.380Z,11.9
2018-10-01T06:52:27.995Z,11.8
2018-10-01T06:57:28.344Z,11.8
2018-10-01T07:02:28.402Z,11.9
2018-10-01T07:07:28.939Z,11.9
2018-10-01T07:12:28.730Z,11.8
2018-10-01T07:17:28.793Z,11.8
2018-10-01T07:22:28.738Z,11.8
2018-10-01T07:27:29.028Z,11.8
2018-10-01T07:32:27.789Z,11.7
2018-10-01T07:37:28.983Z,11.8
2018-10-01T07:42:28.359Z,11.7
2018-10-01T07:47:29.051Z,11.9
2018-10-01T07:52:28.855Z,12.1
2018-10-01T07:57:28.519Z,12.2
2018-10-01T08:02:28.640Z,12.2
2018-10-01T08:07:28.502Z,12.2
2018-10-01T08:12:28.378Z,12.2
2018-10-01T08:17:28.691Z,12.2
2018-10-01T08:22:28.339Z,12.3
2018-10-01T08:27:28.539Z,12.3
2018-10-01T08:32:28.769Z,12.4
2018-10-01T08:37:30.327Z,12.4
2018-10-01T08:42:28.353Z,12.5
2018-10-01T08:47:28.528Z,12.5
2018-10-01T08:52:28.680Z,12.5
2018-10-01T08:57:28.507Z,12.6
2018-10-01T09:02:28.899Z,12.6
2018-10-01T09:07:29.153Z,12.8
2018-10-01T09:12:29.011Z,13.0
2018-10-01T09:17:28.977Z,12.9
2018-10-01T09:22:28.773Z,13.0
2018-10-01T09:27:28.782Z,13.0
2018-10-01T09:32:28.529Z,13.2
2018-10-01T09:37:28.464Z,13.3
2018-10-01T09:42:28.728Z,13.3
2018-10-01T09:47:29.306Z,13.2
2018-10-01T09:52:28.419Z,13.2
2018-10-01T09:57:28.046Z,13.2
2018-10-01T10:02:28.879Z,13.1
2018-10-01T10:07:28.418Z,13.3
2018-10-01T10:12:29.810Z,13.3
2018-10-01T10:17:28.003Z,13.5
2018-10-01T10:22:28.199Z,13.9
2018-10-01T10:27:29.149Z,14.2
2018-10-01T10:32:28.199Z,14.4
2018-10-01T10:37:28.347Z,14.3
2018-10-01T10:42:28.341Z,14.3
2018-10-01T10:47:28.732Z,14.7
2018-10-01T10:52:27.900Z,14.6
2018-10-01T10:57:29.149Z,14.8
2018-10-01T11:02:28.938Z,14.9
2018-10-01T11:07:28.310Z,15.0
2018-10-01T11:12:30.325Z,15.2
2018-10-01T11:17:28.885Z,15.2
2018-10-01T11:22:28.147Z,15.6
2018-10-01T11:27:28.087Z,15.5
2018-10-01T11:32:28.839Z,15.7
2018-10-01T11:37:28.208Z,15.6
2018-10-01T11:42:28.857Z,15.2
2018-10-01T11:47:29.083Z,14.7
2018-10-01T11:52:27.997Z,14.4
2018-10-01T11:57:28.529Z,14.5
2018-10-01T12:02:29.279Z,14.7
2018-10-01T12:07:28.484Z,14.8
2018-10-01T12:12:28.042Z,14.8
2018-10-01T12:17:28.534Z,15.0
2018-10-01T12:22:28.746Z,15.5
2018-10-01T12:27:28.543Z,15.5
2018-10-01T12:32:28.179Z,16.0
2018-10-01T12:37:28.072Z,16.2
2018-10-01T12:42:28.763Z,16.4
2018-10-01T12:47:29.401Z,17.0
2018-10-01T12:52:28.335Z,17.9
2018-10-01T12:57:28.147Z,18.0
2018-10-01T13:02:28.831Z,17.7
2018-10-01T13:07:28.616Z,17.5
2018-10-01T13:12:28.085Z,17.4
2018-10-01T13:17:29.315Z,16.6
2018-10-01T13:22:28.556Z,16.6
2018-10-01T13:27:28.378Z,16.6
2018-10-01T13:32:28.753Z,16.5
2018-10-01T13:37:28.301Z,16.8
2018-10-01T13:42:28.829Z,16.8
2018-10-01T13:47:28.855Z,16.4
2018-10-01T13:52:27.951Z,16.4
2018-10-01T13:57:27.948Z,15.7
2018-10-01T14:02:28.351Z,15.3
2018-10-01T14:07:28.321Z,16.3
2018-10-01T14:12:28.491Z,19.4
2018-10-01T14:17:28.511Z,19.3
2018-10-01T14:22:28.321Z,19.8
2018-10-01T14:27:28.774Z,19.9
2018-10-01T14:32:28.273Z,21.1
2018-10-01T14:37:28.736Z,24.9
2018-10-01T14:42:28.712Z,24.9
2018-10-01T14:47:29.249Z,21.3
2018-10-01T14:52:29.057Z,21.2
2018-10-01T14:57:28.254Z,25.2
2018-10-01T15:02:29.172Z,28.9
2018-10-01T15:07:27.889Z,29.3
2018-10-01T15:12:28.459Z,29.2
2018-10-01T15:17:28.915Z,29.9
2018-10-01T15:22:27.966Z,30.2
2018-10-01T15:27:28.810Z,26.1
2018-10-01T15:32:29.434Z,19.3
2018-10-01T15:37:28.920Z,19.3
2018-10-01T15:42:28.380Z,17.9
2018-10-01T15:47:29.047Z,15.8
2018-10-01T15:52:28.361Z,15.7
2018-10-01T15:57:28.331Z,16.8
2018-10-01T16:02:28.345Z,16.7
2018-10-01T16:07:28.751Z,15.6
2018-10-01T16:12:28.525Z,14.7
2018-10-01T16:17:28.943Z,13.7
2018-10-01T16:27:28.590Z,13.6
2018-10-01T16:32:28.666Z,13.3
2018-10-01T16:37:29.325Z,12.6
2018-10-01T16:42:28.856Z,12.4
2018-10-01T16:47:29.269Z,12.3
2018-10-01T16:52:27.611Z,12.3
2018-10-01T16:57:28.298Z,12.0
2018-10-01T17:02:29.155Z,11.6
2018-10-01T17:07:28.398Z,11.6
2018-10-01T17:12:28.487Z,11.4
2018-10-01T17:17:28.286Z,11.3
2018-10-01T17:22:28.479Z,11.2
2018-10-01T17:27:28.161Z,11.0
2018-10-01T17:32:28.477Z,10.9
2018-10-01T17:37:28.235Z,10.9
2018-10-01T17:42:28.192Z,10.8
2018-10-01T17:47:28.256Z,10.9
2018-10-01T17:52:28.690Z,11.0
2018-10-01T17:57:28.083Z,10.9
2018-10-01T18:02:29.853Z,11.0
2018-10-01T18:07:28.262Z,10.9
2018-10-01T18:12:28.105Z,10.9
2018-10-01T18:17:28.132Z,10.7
2018-10-01T18:22:27.385Z,10.6
2018-10-01T18:27:28.079Z,10.4
2018-10-01T18:32:28.383Z,10.3
2018-10-01T18:37:28.537Z,10.4
2018-10-01T18:42:28.432Z,10.3
2018-10-01T18:47:28.721Z,10.4
2018-10-01T18:52:29.253Z,10.4
2018-10-01T18:57:27.810Z,10.6
2018-10-01T19:02:27.716Z,10.6
2018-10-01T19:07:28.531Z,10.7
2018-10-01T19:12:28.011Z,10.8
2018-10-01T19:17:28.774Z,10.7
2018-10-01T19:22:27.758Z,10.7
2018-10-01T19:27:27.827Z,10.6
2018-10-01T19:32:30.065Z,10.4
2018-10-01T19:37:28.513Z,10.4
2018-10-01T19:42:28.440Z,10.3
2018-10-01T19:47:28.974Z,10.3
2018-10-01T19:52:27.371Z,10.2
2018-10-01T19:57:27.898Z,10.2
2018-10-01T20:02:28.085Z,10.0
2018-10-01T20:07:28.772Z,10.0
2018-10-01T20:12:28.295Z,9.9
2018-10-01T20:17:28.187Z,9.9
2018-10-01T20:22:28.078Z,9.9
2018-10-01T20:27:28.161Z,9.9
2018-10-01T20:32:27.904Z,10.0
2018-10-01T20:37:28.616Z,10.0
2018-10-01T20:42:27.674Z,10.1
2018-10-01T20:47:27.957Z,10.1
2018-10-01T20:52:28.636Z,10.1
2018-10-01T20:57:28.758Z,10.1
2018-10-01T21:02:28.163Z,10.2
2018-10-01T21:07:28.159Z,10.2
2018-10-01T21:12:28.293Z,10.1
2018-10-01T21:17:27.606Z,10.1
2018-10-01T21:22:28.066Z,9.9
2018-10-01T21:27:27.970Z,9.9
2018-10-01T21:32:28.181Z,9.8
2018-10-01T21:37:28.534Z,9.8
2018-10-01T21:42:27.726Z,9.8
2018-10-01T21:47:28.509Z,9.7
2018-10-01T21:52:28.095Z,9.6
2018-10-01T21:57:27.317Z,9.4
2018-10-01T22:02:28.268Z,9.3
2018-10-01T22:07:28.814Z,9.2
2018-10-01T22:12:28.950Z,9.2
2018-10-01T22:23:06.244Z,9.1
2018-10-01T22:28:04.332Z,9.1
2018-10-01T22:33:03.972Z,9.2
2018-10-01T22:38:03.814Z,9.3
2018-10-01T22:43:04.493Z,9.3
2018-10-01T22:48:04.051Z,9.3
2018-10-01T22:53:04.985Z,9.3
2018-10-01T22:58:03.888Z,9.2
2018-10-01T23:03:05.126Z,9.0
2018-10-01T23:08:04.398Z,8.9
2018-10-01T23:12:28.589Z,8.9
2018-10-01T23:17:27.962Z,8.9
2018-10-01T23:22:27.770Z,8.8
2018-10-01T23:27:27.943Z,8.8
2018-10-01T23:32:27.755Z,8.8
2018-10-01T23:37:28.524Z,8.8
2018-10-01T23:42:27.616Z,8.7
2018-10-01T23:47:27.860Z,8.7
2018-10-01T23:52:28.238Z,8.7
2018-10-01T23:57:27.323Z,8.6
